CheckWX is a tool to help pilots better visualize weather data.  It is not intended as a substitute for an official pre-flight weather briefing.

17:09:49 UTC

HTMU METAR
Musoma Airport
Musoma, Tanzania
Current

1 hour ago

HTMU 211600Z 30008KT 9999 FEW024CB 25/20 Q1016
Observed
Jul-21 @ 16:00 UTC
Wind
  • 300° at 8 KTS
Visibility
10,000+ meters
Flight Rules
VFR
Cloud Levels
  • Few at 2,400' AGL
Temperature
25°C / 77°F
Dewpoint
20°C / 68°F
Humidity
74%
Altimeter
30" Hg
Pressure
1015.92 hPa
Previous

2 hours ago

HTMU 211500Z 34010KT 9999 FEW028 FEW030CB 26/20 Q1016
Observed
Jul-21 @ 15:00 UTC
Wind
  • 340° at 10 KTS
Visibility
10,000+ meters
Flight Rules
VFR
Cloud Levels
  • Few at 2,800' AGL
  • Few at 3,000' AGL
Temperature
26°C / 79°F
Dewpoint
20°C / 68°F
Humidity
70%
Altimeter
30" Hg
Pressure
1015.92 hPa
Previous

3 hours ago

HTMU 211400Z 30010KT 9999 FEW028 FEW030CB 26/20 Q1016
Observed
Jul-21 @ 14:00 UTC
Wind
  • 300° at 10 KTS
Visibility
10,000+ meters
Flight Rules
VFR
Cloud Levels
  • Few at 2,800' AGL
  • Few at 3,000' AGL
Temperature
26°C / 79°F
Dewpoint
20°C / 68°F
Humidity
70%
Altimeter
30" Hg
Pressure
1015.92 hPa